sensor_id;sensor_type;location;lat;lon;timestamp;pressure;altitude;pressure_sealevel;temperature;humidity
27304;BME280;14791;52.392;13.092;2023-07-29T00:01:36;100408.80;;;23.65;59.06
27304;BME280;14791;52.392;13.092;2023-07-29T00:04:05;100409.36;;;23.61;59.06
27304;BME280;14791;52.392;13.092;2023-07-29T00:06:34;100410.41;;;23.60;59.00
27304;BME280;14791;52.392;13.092;2023-07-29T00:09:03;100400.41;;;23.56;59.06
27304;BME280;14791;52.392;13.092;2023-07-29T00:11:32;100401.95;;;23.54;59.04
27304;BME280;14791;52.392;13.092;2023-07-29T00:14:02;100405.90;;;23.52;59.03
27304;BME280;14791;52.392;13.092;2023-07-29T00:16:31;100417.81;;;23.51;59.01
27304;BME280;14791;52.392;13.092;2023-07-29T00:19:00;100407.81;;;23.47;59.01
27304;BME280;14791;52.392;13.092;2023-07-29T00:21:29;100411.24;;;23.45;59.00
27304;BME280;14791;52.392;13.092;2023-07-29T00:23:58;100410.58;;;23.43;58.99
27304;BME280;14791;52.392;13.092;2023-07-29T00:26:28;100412.32;;;23.40;59.00
27304;BME280;14791;52.392;13.092;2023-07-29T00:28:59;100409.77;;;23.39;59.05
27304;BME280;14791;52.392;13.092;2023-07-29T00:31:28;100409.63;;;23.36;59.08
27304;BME280;14791;52.392;13.092;2023-07-29T00:33:58;100414.41;;;23.34;59.14
27304;BME280;14791;52.392;13.092;2023-07-29T00:36:26;100411.02;;;23.32;59.07
27304;BME280;14791;52.392;13.092;2023-07-29T00:38:55;100406.48;;;23.28;59.12
27304;BME280;14791;52.392;13.092;2023-07-29T00:41:25;100403.61;;;23.26;59.16
27304;BME280;14791;52.392;13.092;2023-07-29T00:43:54;100394.77;;;23.24;59.16
27304;BME280;14791;52.392;13.092;2023-07-29T00:46:24;100391.73;;;23.23;59.12
27304;BME280;14791;52.392;13.092;2023-07-29T00:48:53;100400.39;;;23.22;59.01
27304;BME280;14791;52.392;13.092;2023-07-29T00:51:24;100392.95;;;23.20;58.95
27304;BME280;14791;52.392;13.092;2023-07-29T00:53:53;100390.05;;;23.18;58.97
27304;BME280;14791;52.392;13.092;2023-07-29T00:56:22;100384.14;;;23.14;58.98
27304;BME280;14791;52.392;13.092;2023-07-29T00:58:51;100375.30;;;23.12;59.01
27304;BME280;14791;52.392;13.092;2023-07-29T01:01:22;100377.89;;;23.09;59.04
27304;BME280;14791;52.392;13.092;2023-07-29T01:03:51;100373.34;;;23.06;59.08
27304;BME280;14791;52.392;13.092;2023-07-29T01:12:08;100361.34;;;22.92;59.10
27304;BME280;14791;52.392;13.092;2023-07-29T01:14:39;100364.94;;;22.88;59.08
27304;BME280;14791;52.392;13.092;2023-07-29T01:17:13;100365.16;;;22.83;59.15
27304;BME280;14791;52.392;13.092;2023-07-29T01:22:16;100357.72;;;22.77;59.16
27304;BME280;14791;52.392;13.092;2023-07-29T01:24:47;100357.57;;;22.74;59.21
27304;BME280;14791;52.392;13.092;2023-07-29T01:27:16;100362.17;;;22.73;59.25
27304;BME280;14791;52.392;13.092;2023-07-29T01:29:45;100368.31;;;22.71;59.24
27304;BME280;14791;52.392;13.092;2023-07-29T01:32:37;100365.27;;;22.70;59.16
27304;BME280;14791;52.392;13.092;2023-07-29T01:37:39;100362.92;;;22.67;59.10
27304;BME280;14791;52.392;13.092;2023-07-29T01:40:10;100359.88;;;22.62;59.13
27304;BME280;14791;52.392;13.092;2023-07-29T01:42:39;100367.72;;;22.61;59.12
27304;BME280;14791;52.392;13.092;2023-07-29T01:45:08;100365.70;;;22.59;59.02
27304;BME280;14791;52.392;13.092;2023-07-29T01:47:37;100365.17;;;22.60;59.03
27304;BME280;14791;52.392;13.092;2023-07-29T01:50:08;100365.38;;;22.58;58.99
27304;BME280;14791;52.392;13.092;2023-07-29T01:52:37;100371.83;;;22.57;59.04
27304;BME280;14791;52.392;13.092;2023-07-29T01:55:06;100375.77;;;22.55;59.06
27304;BME280;14791;52.392;13.092;2023-07-29T01:57:35;100375.96;;;22.53;59.08
27304;BME280;14791;52.392;13.092;2023-07-29T02:00:05;100381.58;;;22.51;59.09
27304;BME280;14791;52.392;13.092;2023-07-29T02:02:36;100378.02;;;22.51;59.12
27304;BME280;14791;52.392;13.092;2023-07-29T02:05:05;100378.03;;;22.47;59.09
27304;BME280;14791;52.392;13.092;2023-07-29T02:07:35;100369.20;;;22.45;58.96
27304;BME280;14791;52.392;13.092;2023-07-29T02:10:04;100371.25;;;22.43;58.92
27304;BME280;14791;52.392;13.092;2023-07-29T02:12:33;100370.58;;;22.41;58.97
27304;BME280;14791;52.392;13.092;2023-07-29T02:15:05;100362.94;;;22.40;58.99
27304;BME280;14791;52.392;13.092;2023-07-29T02:17:33;100368.58;;;22.39;59.05
27304;BME280;14791;52.392;13.092;2023-07-29T02:20:03;100365.19;;;22.37;59.06
27304;BME280;14791;52.392;13.092;2023-07-29T02:22:32;100368.59;;;22.35;59.08
27304;BME280;14791;52.392;13.092;2023-07-29T02:25:02;100363.84;;;22.33;59.04
27304;BME280;14791;52.392;13.092;2023-07-29T02:27:31;100358.41;;;22.33;58.99
27304;BME280;14791;52.392;13.092;2023-07-29T02:30:01;100355.02;;;22.30;59.04
27304;BME280;14791;52.392;13.092;2023-07-29T02:32:30;100356.05;;;22.29;59.07
27304;BME280;14791;52.392;13.092;2023-07-29T02:34:59;100363.55;;;22.27;59.04
27304;BME280;14791;52.392;13.092;2023-07-29T02:37:28;100359.11;;;22.26;59.04
27304;BME280;14791;52.392;13.092;2023-07-29T02:39:57;100366.95;;;22.25;59.04
27304;BME280;14791;52.392;13.092;2023-07-29T02:42:26;100363.39;;;22.25;59.03
27304;BME280;14791;52.392;13.092;2023-07-29T02:44:55;100360.16;;;22.25;59.07
27304;BME280;14791;52.392;13.092;2023-07-29T02:47:24;100366.95;;;22.25;59.19
27304;BME280;14791;52.392;13.092;2023-07-29T02:49:53;100363.91;;;22.24;59.31
27304;BME280;14791;52.392;13.092;2023-07-29T02:52:22;100366.95;;;22.25;59.48
27304;BME280;14791;52.392;13.092;2023-07-29T02:54:51;100365.59;;;22.25;59.56
27304;BME280;14791;52.392;13.092;2023-07-29T02:57:20;100374.42;;;22.27;59.61
27304;BME280;14791;52.392;13.092;2023-07-29T02:59:49;100367.11;;;22.28;59.65
27304;BME280;14791;52.392;13.092;2023-07-29T03:02:18;100366.41;;;22.30;59.73
27304;BME280;14791;52.392;13.092;2023-07-29T03:04:48;100366.56;;;22.33;59.72
27304;BME280;14791;52.392;13.092;2023-07-29T03:07:17;100369.12;;;22.34;59.64
27304;BME280;14791;52.392;13.092;2023-07-29T03:09:48;100370.80;;;22.35;59.63
27304;BME280;14791;52.392;13.092;2023-07-29T03:12:17;100366.72;;;22.35;59.56
27304;BME280;14791;52.392;13.092;2023-07-29T03:14:47;100363.48;;;22.36;59.49
27304;BME280;14791;52.392;13.092;2023-07-29T03:17:16;100363.48;;;22.36;59.45
27304;BME280;14791;52.392;13.092;2023-07-29T03:19:45;100362.80;;;22.34;59.39
27304;BME280;14791;52.392;13.092;2023-07-29T03:22:14;100362.80;;;22.34;59.40
27304;BME280;14791;52.392;13.092;2023-07-29T03:24:43;100360.95;;;22.34;59.41
27304;BME280;14791;52.392;13.092;2023-07-29T03:27:12;100355.69;;;22.33;59.43
27304;BME280;14791;52.392;13.092;2023-07-29T03:29:43;100354.33;;;22.33;59.49
27304;BME280;14791;52.392;13.092;2023-07-29T03:32:12;100365.20;;;22.33;59.50
27304;BME280;14791;52.392;13.092;2023-07-29T03:34:41;100359.45;;;22.32;59.48
27304;BME280;14791;52.392;13.092;2023-07-29T03:37:10;100355.02;;;22.30;59.47
27304;BME280;14791;52.392;13.092;2023-07-29T03:39:39;100353.13;;;22.31;59.45
27304;BME280;14791;52.392;13.092;2023-07-29T03:42:08;100354.17;;;22.30;59.46
27304;BME280;14791;52.392;13.092;2023-07-29T03:44:37;100351.98;;;22.29;59.51
27304;BME280;14791;52.392;13.092;2023-07-29T03:47:07;100348.91;;;22.28;59.56
27304;BME280;14791;52.392;13.092;2023-07-29T03:49:37;100351.30;;;22.27;59.58
27304;BME280;14791;52.392;13.092;2023-07-29T03:52:06;100350.95;;;22.26;59.64
27304;BME280;14791;52.392;13.092;2023-07-29T03:54:35;100341.95;;;22.26;59.72
27304;BME280;14791;52.392;13.092;2023-07-29T03:57:05;100345.51;;;22.26;59.77
27304;BME280;14791;52.392;13.092;2023-07-29T03:59:34;100348.58;;;22.27;59.86
27304;BME280;14791;52.392;13.092;2023-07-29T04:02:03;100345.86;;;22.27;59.92
27304;BME280;14791;52.392;13.092;2023-07-29T04:04:32;100336.48;;;22.30;59.97
27304;BME280;14791;52.392;13.092;2023-07-29T04:07:01;100342.25;;;22.31;60.01
27304;BME280;14791;52.392;13.092;2023-07-29T04:09:30;100345.13;;;22.34;60.00
27304;BME280;14791;52.392;13.092;2023-07-29T04:11:59;100358.23;;;22.34;60.03
27304;BME280;14791;52.392;13.092;2023-07-29T04:14:28;100349.35;;;22.36;60.05
27304;BME280;14791;52.392;13.092;2023-07-29T04:16:58;100356.34;;;22.39;60.10
27304;BME280;14791;52.392;13.092;2023-07-29T04:19:27;100356.97;;;22.41;60.13
27304;BME280;14791;52.392;13.092;2023-07-29T04:21:56;100355.28;;;22.44;60.12
27304;BME280;14791;52.392;13.092;2023-07-29T04:24:24;100337.39;;;22.45;60.08
27304;BME280;14791;52.392;13.092;2023-07-29T04:26:53;100337.53;;;22.48;60.02
27304;BME280;14791;52.392;13.092;2023-07-29T04:29:22;100331.75;;;22.51;59.95
27304;BME280;14791;52.392;13.092;2023-07-29T04:31:51;100331.06;;;22.53;60.00
27304;BME280;14791;52.392;13.092;2023-07-29T04:34:21;100332.05;;;22.56;60.13
27304;BME280;14791;52.392;13.092;2023-07-29T04:36:50;100328.28;;;22.57;60.28
27304;BME280;14791;52.392;13.092;2023-07-29T04:39:19;100339.14;;;22.61;60.42
27304;BME280;14791;52.392;13.092;2023-07-29T04:41:48;100341.84;;;22.65;60.55
27304;BME280;14791;52.392;13.092;2023-07-29T04:44:17;100345.70;;;22.71;60.54
27304;BME280;14791;52.392;13.092;2023-07-29T04:46:46;100345.47;;;22.77;60.43
27304;BME280;14791;52.392;13.092;2023-07-29T04:49:15;100344.91;;;22.81;60.34
27304;BME280;14791;52.392;13.092;2023-07-29T04:51:44;100343.84;;;22.86;60.19
27304;BME280;14791;52.392;13.092;2023-07-29T04:54:13;100347.38;;;22.91;60.13
27304;BME280;14791;52.392;13.092;2023-07-29T04:56:42;100340.55;;;22.95;60.16
27304;BME280;14791;52.392;13.092;2023-07-29T04:59:11;100342.92;;;22.98;60.30
27304;BME280;14791;52.392;13.092;2023-07-29T05:01:40;100329.94;;;23.04;60.51
27304;BME280;14791;52.392;13.092;2023-07-29T05:04:10;100326.45;;;23.10;60.76
27304;BME280;14791;52.392;13.092;2023-07-29T05:06:39;100326.03;;;23.18;60.79
27304;BME280;14791;52.392;13.092;2023-07-29T05:09:19;100326.66;;;23.24;60.74
27304;BME280;14791;52.392;13.092;2023-07-29T05:11:51;100328.66;;;23.30;60.56
27304;BME280;14791;52.392;13.092;2023-07-29T05:14:19;100337.95;;;23.35;60.46
27304;BME280;14791;52.392;13.092;2023-07-29T05:16:49;100342.31;;;23.41;60.31
27304;BME280;14791;52.392;13.092;2023-07-29T05:19:18;100345.84;;;23.45;60.27
27304;BME280;14791;52.392;13.092;2023-07-29T05:21:47;100350.20;;;23.50;60.27
27304;BME280;14791;52.392;13.092;2023-07-29T05:24:16;100344.71;;;23.54;60.33
27304;BME280;14791;52.392;13.092;2023-07-29T05:26:45;100347.39;;;23.59;60.36
27304;BME280;14791;52.392;13.092;2023-07-29T05:29:14;100349.34;;;23.65;60.54
27304;BME280;14791;52.392;13.092;2023-07-29T05:31:43;100341.58;;;23.72;60.74
27304;BME280;14791;52.392;13.092;2023-07-29T05:34:12;100335.23;;;23.80;60.66
27304;BME280;14791;52.392;13.092;2023-07-29T05:36:42;100329.97;;;23.89;60.77
27304;BME280;14791;52.392;13.092;2023-07-29T05:39:11;100331.89;;;23.99;60.45
27304;BME280;14791;52.392;13.092;2023-07-29T05:41:40;100326.65;;;24.09;60.25
27304;BME280;14791;52.392;13.092;2023-07-29T05:44:09;100327.88;;;24.17;59.68
27304;BME280;14791;52.392;13.092;2023-07-29T05:46:38;100328.14;;;24.22;59.63
27304;BME280;14791;52.392;13.092;2023-07-29T05:49:08;100319.50;;;24.29;59.37
27304;BME280;14791;52.392;13.092;2023-07-29T05:51:37;100317.56;;;24.34;59.37
27304;BME280;14791;52.392;13.092;2023-07-29T05:54:06;100318.34;;;24.38;59.20
27304;BME280;14791;52.392;13.092;2023-07-29T05:56:35;100301.25;;;24.40;59.16
27304;BME280;14791;52.392;13.092;2023-07-29T05:59:04;100304.11;;;24.43;58.97
27304;BME280;14791;52.392;13.092;2023-07-29T06:01:33;100306.97;;;24.46;59.12
27304;BME280;14791;52.392;13.092;2023-07-29T06:04:02;100299.13;;;24.47;59.20
27304;BME280;14791;52.392;13.092;2023-07-29T06:06:31;100299.47;;;24.48;59.02
27304;BME280;14791;52.392;13.092;2023-07-29T06:09:00;100294.66;;;24.50;59.04
27304;BME280;14791;52.392;13.092;2023-07-29T06:11:29;100296.33;;;24.51;59.20
27304;BME280;14791;52.392;13.092;2023-07-29T06:13:58;100303.28;;;24.53;59.31
27304;BME280;14791;52.392;13.092;2023-07-29T06:16:27;100311.60;;;24.56;59.42
27304;BME280;14791;52.392;13.092;2023-07-29T06:18:57;100301.14;;;24.59;59.46
27304;BME280;14791;52.392;13.092;2023-07-29T06:21:26;100311.98;;;24.63;59.41
27304;BME280;14791;52.392;13.092;2023-07-29T06:23:55;100312.44;;;24.67;59.53
27304;BME280;14791;52.392;13.092;2023-07-29T06:26:24;100319.83;;;24.73;59.63
27304;BME280;14791;52.392;13.092;2023-07-29T06:28:53;100319.77;;;24.77;59.67
27304;BME280;14791;52.392;13.092;2023-07-29T06:31:22;100333.67;;;24.82;59.68
27304;BME280;14791;52.392;13.092;2023-07-29T06:33:51;100323.20;;;24.86;59.64
27304;BME280;14791;52.392;13.092;2023-07-29T06:36:19;100334.91;;;24.91;59.77
27304;BME280;14791;52.392;13.092;2023-07-29T06:38:48;100336.83;;;24.97;59.84
27304;BME280;14791;52.392;13.092;2023-07-29T06:41:17;100338.25;;;25.03;59.77
27304;BME280;14791;52.392;13.092;2023-07-29T06:43:46;100339.67;;;25.10;59.82
27304;BME280;14791;52.392;13.092;2023-07-29T06:46:15;100337.86;;;25.17;59.80
27304;BME280;14791;52.392;13.092;2023-07-29T06:48:45;100338.41;;;25.23;59.71
27304;BME280;14791;52.392;13.092;2023-07-29T06:51:13;100339.64;;;25.32;59.69
27304;BME280;14791;52.392;13.092;2023-07-29T06:53:42;100336.20;;;25.40;59.72
27304;BME280;14791;52.392;13.092;2023-07-29T06:56:11;100339.97;;;25.50;59.44
27304;BME280;14791;52.392;13.092;2023-07-29T06:58:40;100332.64;;;25.57;59.14
27304;BME280;14791;52.392;13.092;2023-07-29T07:01:09;100334.89;;;25.64;59.04
27304;BME280;14791;52.392;13.092;2023-07-29T07:03:38;100334.05;;;25.71;58.83
27304;BME280;14791;52.392;13.092;2023-07-29T07:06:07;100332.91;;;25.76;58.67
27304;BME280;14791;52.392;13.092;2023-07-29T07:08:36;100335.87;;;25.81;58.48
27304;BME280;14791;52.392;13.092;2023-07-29T07:11:05;100331.70;;;25.85;58.40
27304;BME280;14791;52.392;13.092;2023-07-29T07:13:34;100333.02;;;25.89;58.34
27304;BME280;14791;52.392;13.092;2023-07-29T07:16:03;100343.13;;;25.95;58.29
27304;BME280;14791;52.392;13.092;2023-07-29T07:18:32;100344.75;;;26.00;58.13
27304;BME280;14791;52.392;13.092;2023-07-29T07:21:01;100340.22;;;26.03;58.08
27304;BME280;14791;52.392;13.092;2023-07-29T07:23:30;100343.38;;;26.07;58.13
27304;BME280;14791;52.392;13.092;2023-07-29T07:25:59;100338.98;;;26.13;58.04
27304;BME280;14791;52.392;13.092;2023-07-29T07:28:27;100333.73;;;26.18;57.91
27304;BME280;14791;52.392;13.092;2023-07-29T07:30:56;100324.91;;;26.22;57.94
27304;BME280;14791;52.392;13.092;2023-07-29T07:33:27;100321.33;;;26.28;57.95
27304;BME280;14791;52.392;13.092;2023-07-29T07:35:55;100315.88;;;26.35;57.81
27304;BME280;14791;52.392;13.092;2023-07-29T07:38:24;100311.98;;;26.40;57.80
27304;BME280;14791;52.392;13.092;2023-07-29T07:40:55;100313.89;;;26.46;57.73
27304;BME280;14791;52.392;13.092;2023-07-29T07:43:24;100316.14;;;26.54;57.53
27304;BME280;14791;52.392;13.092;2023-07-29T07:46:01;100313.19;;;26.62;57.45
27304;BME280;14791;52.392;13.092;2023-07-29T07:48:30;100306.98;;;26.70;57.35
27304;BME280;14791;52.392;13.092;2023-07-29T07:51:09;100305.62;;;26.77;57.16
27304;BME280;14791;52.392;13.092;2023-07-29T07:53:31;100305.09;;;26.84;57.05
27304;BME280;14791;52.392;13.092;2023-07-29T07:56:00;100299.68;;;26.93;57.03
27304;BME280;14791;52.392;13.092;2023-07-29T07:58:29;100306.96;;;27.04;56.82
27304;BME280;14791;52.392;13.092;2023-07-29T08:01:08;100305.15;;;27.13;56.58
27304;BME280;14791;52.392;13.092;2023-07-29T08:03:37;100293.44;;;27.22;56.32
27304;BME280;14791;52.392;13.092;2023-07-29T08:06:06;100306.20;;;27.32;56.12
27304;BME280;14791;52.392;13.092;2023-07-29T08:08:34;100305.41;;;27.41;55.85
27304;BME280;14791;52.392;13.092;2023-07-29T08:11:03;100306.86;;;27.50;55.58
27304;BME280;14791;52.392;13.092;2023-07-29T08:13:32;100301.25;;;27.61;55.28
27304;BME280;14791;52.392;13.092;2023-07-29T08:16:01;100300.70;;;27.68;54.75
27304;BME280;14791;52.392;13.092;2023-07-29T08:18:30;100297.39;;;27.75;54.30
27304;BME280;14791;52.392;13.092;2023-07-29T08:21:00;100294.83;;;27.81;54.12
27304;BME280;14791;52.392;13.092;2023-07-29T08:23:34;100292.59;;;27.87;54.03
27304;BME280;14791;52.392;13.092;2023-07-29T08:26:04;100289.73;;;27.91;53.99
27304;BME280;14791;52.392;13.092;2023-07-29T08:28:36;100290.25;;;27.97;54.02
27304;BME280;14791;52.392;13.092;2023-07-29T08:31:06;100291.05;;;28.04;54.07
27304;BME280;14791;52.392;13.092;2023-07-29T08:33:35;100301.75;;;28.12;54.14
27304;BME280;14791;52.392;13.092;2023-07-29T08:36:04;100287.75;;;28.20;53.89
27304;BME280;14791;52.392;13.092;2023-07-29T08:38:33;100283.17;;;28.30;53.67
27304;BME280;14791;52.392;13.092;2023-07-29T08:41:19;100282.05;;;28.38;53.22
27304;BME280;14791;52.392;13.092;2023-07-29T08:44:42;100287.63;;;28.47;53.09
27304;BME280;14791;52.392;13.092;2023-07-29T08:46:25;100283.12;;;28.53;52.81
27304;BME280;14791;52.392;13.092;2023-07-29T08:48:55;100286.74;;;28.62;52.83
27304;BME280;14791;52.392;13.092;2023-07-29T08:51:26;100288.98;;;28.72;52.61
27304;BME280;14791;52.392;13.092;2023-07-29T08:53:56;100287.42;;;28.83;52.39
27304;BME280;14791;52.392;13.092;2023-07-29T08:56:25;100280.87;;;28.93;52.25
27304;BME280;14791;52.392;13.092;2023-07-29T08:58:55;100275.39;;;29.02;52.17
27304;BME280;14791;52.392;13.092;2023-07-29T09:01:25;100275.73;;;29.13;52.10
27304;BME280;14791;52.392;13.092;2023-07-29T09:03:54;100273.28;;;29.23;51.75
27304;BME280;14791;52.392;13.092;2023-07-29T09:06:24;100274.13;;;29.33;51.35
27304;BME280;14791;52.392;13.092;2023-07-29T09:08:55;100277.13;;;29.40;51.03
27304;BME280;14791;52.392;13.092;2023-07-29T09:11:28;100276.52;;;29.47;50.73
27304;BME280;14791;52.392;13.092;2023-07-29T09:13:57;100270.39;;;29.55;50.55
27304;BME280;14791;52.392;13.092;2023-07-29T09:16:26;100269.77;;;29.62;50.37
27304;BME280;14791;52.392;13.092;2023-07-29T09:18:55;100263.68;;;29.69;50.12
27304;BME280;14791;52.392;13.092;2023-07-29T09:21:25;100255.16;;;29.80;50.06
27304;BME280;14791;52.392;13.092;2023-07-29T09:23:56;100256.27;;;29.90;49.84
27304;BME280;14791;52.392;13.092;2023-07-29T09:26:29;100255.18;;;30.01;49.51
27304;BME280;14791;52.392;13.092;2023-07-29T09:29:00;100257.30;;;30.08;49.42
27304;BME280;14791;52.392;13.092;2023-07-29T09:31:29;100255.28;;;30.15;49.26
27304;BME280;14791;52.392;13.092;2023-07-29T09:34:00;100245.84;;;30.23;49.01
27304;BME280;14791;52.392;13.092;2023-07-29T09:36:33;100248.81;;;30.30;48.62
27304;BME280;14791;52.392;13.092;2023-07-29T09:39:03;100237.92;;;30.36;48.59
27304;BME280;14791;52.392;13.092;2023-07-29T09:41:32;100238.97;;;30.44;48.48
27304;BME280;14791;52.392;13.092;2023-07-29T09:44:03;100234.47;;;30.52;48.21
27304;BME280;14791;52.392;13.092;2023-07-29T09:46:36;100235.52;;;30.60;48.03
27304;BME280;14791;52.392;13.092;2023-07-29T09:49:06;100229.91;;;30.69;47.76
27304;BME280;14791;52.392;13.092;2023-07-29T09:51:39;100228.42;;;30.76;47.72
27304;BME280;14791;52.392;13.092;2023-07-29T09:54:09;100221.97;;;30.82;47.39
27304;BME280;14791;52.392;13.092;2023-07-29T09:56:42;100221.28;;;30.87;47.08
27304;BME280;14791;52.392;13.092;2023-07-29T09:59:12;100211.91;;;30.88;46.95
27304;BME280;14791;52.392;13.092;2023-07-29T10:01:41;100216.36;;;30.89;46.94
27304;BME280;14791;52.392;13.092;2023-07-29T10:04:11;100219.90;;;30.87;46.87
27304;BME280;14791;52.392;13.092;2023-07-29T10:06:42;100213.52;;;30.86;46.72
27304;BME280;14791;52.392;13.092;2023-07-29T10:09:14;100202.13;;;30.83;46.83
27304;BME280;14791;52.392;13.092;2023-07-29T10:11:44;100193.56;;;30.82;46.95
27304;BME280;14791;52.392;13.092;2023-07-29T10:14:13;100199.36;;;30.83;47.04
27304;BME280;14791;52.392;13.092;2023-07-29T10:16:43;100193.39;;;30.86;47.10
27304;BME280;14791;52.392;13.092;2023-07-29T10:19:14;100184.40;;;30.90;46.91
27304;BME280;14791;52.392;13.092;2023-07-29T10:21:47;100182.61;;;30.96;46.95
27304;BME280;14791;52.392;13.092;2023-07-29T10:24:19;100176.94;;;31.03;46.64
27304;BME280;14791;52.392;13.092;2023-07-29T10:26:51;100182.38;;;31.12;46.35
27304;BME280;14791;52.392;13.092;2023-07-29T10:29:20;100186.67;;;31.20;46.25
27304;BME280;14791;52.392;13.092;2023-07-29T10:31:52;100194.86;;;31.29;46.18
27304;BME280;14791;52.392;13.092;2023-07-29T10:34:22;100184.79;;;31.34;45.73
27304;BME280;14791;52.392;13.092;2023-07-29T10:36:51;100176.84;;;31.38;45.42
27304;BME280;14791;52.392;13.092;2023-07-29T10:39:21;100174.40;;;31.39;45.16
27304;BME280;14791;52.392;13.092;2023-07-29T10:41:57;100153.70;;;31.39;45.07
27304;BME280;14791;52.392;13.092;2023-07-29T10:44:47;100160.53;;;31.36;45.17
27304;BME280;14791;52.392;13.092;2023-07-29T10:47:23;100185.75;;;31.28;45.65
27304;BME280;14791;52.392;13.092;2023-07-29T10:49:54;100223.55;;;30.90;47.27
27304;BME280;14791;52.392;13.092;2023-07-29T10:52:39;100230.58;;;30.39;49.05
27304;BME280;14791;52.392;13.092;2023-07-29T10:55:03;100244.30;;;29.76;50.82
27304;BME280;14791;52.392;13.092;2023-07-29T10:57:34;100234.02;;;29.07;52.49
27304;BME280;14791;52.392;13.092;2023-07-29T11:00:04;100231.31;;;28.47;54.37
27304;BME280;14791;52.392;13.092;2023-07-29T11:02:37;100238.40;;;27.98;55.84
27304;BME280;14791;52.392;13.092;2023-07-29T11:05:17;100235.09;;;27.60;57.05
27304;BME280;14791;52.392;13.092;2023-07-29T11:07:48;100227.00;;;27.27;58.28
27304;BME280;14791;52.392;13.092;2023-07-29T11:10:18;100225.92;;;26.99;59.04
27304;BME280;14791;52.392;13.092;2023-07-29T11:12:51;100224.47;;;26.76;59.65
27304;BME280;14791;52.392;13.092;2023-07-29T11:15:26;100213.32;;;26.58;60.38
27304;BME280;14791;52.392;13.092;2023-07-29T11:18:01;100213.63;;;26.45;60.99
27304;BME280;14791;52.392;13.092;2023-07-29T11:20:32;100193.75;;;26.34;61.56
27304;BME280;14791;52.392;13.092;2023-07-29T11:23:03;100197.52;;;26.26;62.08
27304;BME280;14791;52.392;13.092;2023-07-29T11:25:32;100198.17;;;26.22;62.17
27304;BME280;14791;52.392;13.092;2023-07-29T11:28:04;100185.31;;;26.16;62.39
27304;BME280;14791;52.392;13.092;2023-07-29T11:30:33;100200.58;;;26.07;62.55
27304;BME280;14791;52.392;13.092;2023-07-29T11:33:03;100204.96;;;25.95;62.59
27304;BME280;14791;52.392;13.092;2023-07-29T11:35:32;100192.19;;;25.85;63.13
27304;BME280;14791;52.392;13.092;2023-07-29T11:38:02;100186.28;;;25.75;63.77
27304;BME280;14791;52.392;13.092;2023-07-29T11:40:31;100197.02;;;25.70;64.34
27304;BME280;14791;52.392;13.092;2023-07-29T11:43:00;100198.66;;;25.64;64.62
27304;BME280;14791;52.392;13.092;2023-07-29T11:45:29;100191.30;;;25.58;65.08
27304;BME280;14791;52.392;13.092;2023-07-29T11:47:58;100192.55;;;25.55;65.76
27304;BME280;14791;52.392;13.092;2023-07-29T11:50:26;100194.65;;;25.53;66.03
27304;BME280;14791;52.392;13.092;2023-07-29T11:52:56;100186.98;;;25.53;66.33
27304;BME280;14791;52.392;13.092;2023-07-29T11:55:25;100183.37;;;25.52;66.72
27304;BME280;14791;52.392;13.092;2023-07-29T11:57:54;100195.67;;;25.52;66.65
27304;BME280;14791;52.392;13.092;2023-07-29T12:00:23;100196.73;;;25.51;66.85
27304;BME280;14791;52.392;13.092;2023-07-29T12:02:52;100208.40;;;25.49;66.82
27304;BME280;14791;52.392;13.092;2023-07-29T12:05:23;100213.11;;;25.44;66.42
27304;BME280;14791;52.392;13.092;2023-07-29T12:07:53;100212.05;;;25.39;66.57
27304;BME280;14791;52.392;13.092;2023-07-29T12:10:22;100213.72;;;25.33;67.03
27304;BME280;14791;52.392;13.092;2023-07-29T12:12:51;100207.80;;;25.30;67.49
27304;BME280;14791;52.392;13.092;2023-07-29T12:15:27;100207.61;;;25.31;68.03
27304;BME280;14791;52.392;13.092;2023-07-29T12:17:57;100201.84;;;25.37;68.50
27304;BME280;14791;52.392;13.092;2023-07-29T12:20:28;100209.23;;;25.43;68.62
27304;BME280;14791;52.392;13.092;2023-07-29T12:22:59;100204.94;;;25.51;68.78
27304;BME280;14791;52.392;13.092;2023-07-29T12:25:33;100206.45;;;25.60;68.79
27304;BME280;14791;52.392;13.092;2023-07-29T12:28:06;100207.72;;;25.71;68.94
27304;BME280;14791;52.392;13.092;2023-07-29T12:30:43;100213.44;;;25.83;68.71
27304;BME280;14791;52.392;13.092;2023-07-29T12:33:12;100211.91;;;25.98;69.09
27304;BME280;14791;52.392;13.092;2023-07-29T12:35:42;100202.16;;;26.13;69.16
27304;BME280;14791;52.392;13.092;2023-07-29T12:38:20;100202.79;;;26.28;68.92
27304;BME280;14791;52.392;13.092;2023-07-29T12:40:44;100200.46;;;26.45;69.04
27304;BME280;14791;52.392;13.092;2023-07-29T12:43:13;100189.73;;;26.70;69.50
27304;BME280;14791;52.392;13.092;2023-07-29T12:45:42;100187.02;;;26.99;68.94
27304;BME280;14791;52.392;13.092;2023-07-29T12:48:12;100184.31;;;27.28;68.46
27304;BME280;14791;52.392;13.092;2023-07-29T12:50:41;100185.42;;;27.59;67.84
27304;BME280;14791;52.392;13.092;2023-07-29T12:53:10;100188.33;;;27.87;66.72
27304;BME280;14791;52.392;13.092;2023-07-29T12:55:39;100184.47;;;28.10;65.61
27304;BME280;14791;52.392;13.092;2023-07-29T12:58:08;100190.65;;;28.31;64.83
27304;BME280;14791;52.392;13.092;2023-07-29T13:00:37;100189.33;;;28.49;64.19
27304;BME280;14791;52.392;13.092;2023-07-29T13:03:06;100191.67;;;28.80;63.94
27304;BME280;14791;52.392;13.092;2023-07-29T13:05:35;100191.33;;;29.13;63.43